createdAt,value
2019-04-21T00:00:56.871Z,15.16
2019-04-21T00:03:27.485Z,15.03
2019-04-21T00:06:15.762Z,14.82
2019-04-21T00:08:50.829Z,14.80
2019-04-21T00:11:20.692Z,14.76
2019-04-21T00:13:42.690Z,14.42
2019-04-21T00:16:03.385Z,14.77
2019-04-21T00:18:41.808Z,14.72
2019-04-21T00:21:11.031Z,14.72
2019-04-21T00:23:54.071Z,14.61
2019-04-21T00:26:23.823Z,14.37
2019-04-21T00:29:04.027Z,14.33
2019-04-21T00:31:27.094Z,14.29
2019-04-21T00:33:41.600Z,14.21
2019-04-21T00:36:16.705Z,14.28
2019-04-21T00:39:18.655Z,14.18
2019-04-21T00:41:29.665Z,13.94
2019-04-21T00:43:57.045Z,13.94
2019-04-21T00:46:30.763Z,13.85
2019-04-21T00:49:03.102Z,13.72
2019-04-21T00:51:49.718Z,13.83
2019-04-21T00:54:21.144Z,13.57
2019-04-21T00:56:54.202Z,13.48
2019-04-21T00:59:20.116Z,13.51
2019-04-21T01:01:49.120Z,13.44
2019-04-21T01:04:21.408Z,13.48
2019-04-21T01:06:53.098Z,13.38
2019-04-21T01:09:20.183Z,13.32
2019-04-21T01:11:59.612Z,13.30
2019-04-21T01:14:30.092Z,13.19
2019-04-21T01:16:57.397Z,13.05
2019-04-21T01:19:26.937Z,12.93
2019-04-21T01:21:36.951Z,12.76
2019-04-21T01:24:18.593Z,12.76
2019-04-21T01:26:52.487Z,12.85
2019-04-21T01:29:34.329Z,12.97
2019-04-21T01:32:05.151Z,13.02
2019-04-21T01:34:33.214Z,12.99
2019-04-21T01:36:58.886Z,12.89
2019-04-21T01:39:42.048Z,12.77
2019-04-21T01:42:11.267Z,12.57
2019-04-21T01:44:43.126Z,12.62
2019-04-21T01:47:06.087Z,12.59
2019-04-21T01:49:29.665Z,12.42
2019-04-21T01:52:24.738Z,12.54
2019-04-21T01:55:06.417Z,12.47
2019-04-21T01:57:45.188Z,12.28
2019-04-21T02:00:13.270Z,12.29
2019-04-21T02:02:59.493Z,12.18
2019-04-21T02:05:34.391Z,12.04
2019-04-21T02:07:55.083Z,11.86
2019-04-21T02:10:35.334Z,11.86
2019-04-21T02:12:58.252Z,11.95
2019-04-21T02:15:37.888Z,12.02
2019-04-21T02:17:59.701Z,11.89
2019-04-21T02:20:25.821Z,11.79
2019-04-21T02:25:38.441Z,11.97
2019-04-21T02:28:13.516Z,11.80
2019-04-21T02:31:02.955Z,11.86
2019-04-21T02:36:04.799Z,11.61
2019-04-21T02:38:34.430Z,11.57
2019-04-21T02:40:55.390Z,11.54
2019-04-21T02:43:25.530Z,11.48
2019-04-21T02:50:57.638Z,11.16
2019-04-21T02:58:44.119Z,11.17
2019-04-21T03:01:31.903Z,11.15
2019-04-21T03:04:00.612Z,11.00
2019-04-21T03:07:01.635Z,11.15
2019-04-21T03:09:33.516Z,11.31
2019-04-21T03:12:07.056Z,11.44
2019-04-21T03:14:35.835Z,11.18
2019-04-21T03:16:55.635Z,11.04
2019-04-21T03:19:48.204Z,11.12
2019-04-21T03:22:12.911Z,11.26
2019-04-21T03:25:04.258Z,11.11
2019-04-21T03:27:32.798Z,10.89
2019-04-21T03:32:31.015Z,10.98
2019-04-21T03:37:19.116Z,11.14
2019-04-21T03:39:46.927Z,11.06
2019-04-21T03:42:25.607Z,11.11
2019-04-21T03:44:45.735Z,10.94
2019-04-21T03:47:23.007Z,11.05
2019-04-21T03:52:27.825Z,10.85
2019-04-21T04:11:31.674Z,11.28
2019-04-21T04:19:09.311Z,11.08
2019-04-21T04:24:13.686Z,10.83
2019-04-21T04:26:33.117Z,10.62
2019-04-21T04:29:03.448Z,10.73
2019-04-21T04:31:37.626Z,10.76
2019-04-21T04:34:04.975Z,10.59
2019-04-21T04:36:47.434Z,10.46
2019-04-21T04:39:34.006Z,10.58
2019-04-21T04:47:15.830Z,10.54
2019-04-21T04:49:46.127Z,10.70
2019-04-21T04:52:26.292Z,10.59
2019-04-21T04:54:47.599Z,10.65
2019-04-21T04:57:18.267Z,10.47
2019-04-21T04:59:43.003Z,10.52
2019-04-21T05:07:13.845Z,10.45
2019-04-21T05:09:46.577Z,10.47
2019-04-21T05:12:11.585Z,10.52
2019-04-21T05:14:46.105Z,10.57
2019-04-21T05:17:30.634Z,10.63
2019-04-21T05:20:05.846Z,10.61
2019-04-21T05:22:22.956Z,10.78
2019-04-21T05:24:40.580Z,11.01
2019-04-21T05:27:08.744Z,11.14
2019-04-21T05:29:55.626Z,11.26
2019-04-21T05:32:40.266Z,11.39
2019-04-21T05:35:01.637Z,11.54
2019-04-21T05:37:28.622Z,11.72
2019-04-21T05:40:04.393Z,11.86
2019-04-21T05:42:30.292Z,12.21
2019-04-21T05:47:49.523Z,13.29
2019-04-21T05:50:12.333Z,12.90
2019-04-21T05:52:47.430Z,12.84
2019-04-21T05:55:34.107Z,12.92
2019-04-21T05:57:57.267Z,13.45
2019-04-21T06:00:55.958Z,13.34
2019-04-21T06:03:05.378Z,13.31
2019-04-21T06:05:42.515Z,13.85
2019-04-21T06:08:09.877Z,13.73
2019-04-21T06:10:41.960Z,14.26
2019-04-21T06:13:12.897Z,14.53
2019-04-21T06:15:52.596Z,14.70
2019-04-21T06:18:21.721Z,14.83
2019-04-21T06:20:46.677Z,14.75
2019-04-21T06:23:21.302Z,14.39
2019-04-21T06:28:22.684Z,14.57
2019-04-21T06:31:00.481Z,14.67
2019-04-21T06:33:19.870Z,15.14
2019-04-21T06:36:24.084Z,15.02
2019-04-21T06:39:00.029Z,15.83
2019-04-21T06:41:27.728Z,16.52
2019-04-21T06:43:56.646Z,16.87
2019-04-21T06:46:30.849Z,17.10
2019-04-21T06:51:27.445Z,16.80
2019-04-21T06:56:36.541Z,16.92
2019-04-21T06:59:00.833Z,17.31
2019-04-21T07:01:36.000Z,17.65
2019-04-21T07:04:11.506Z,17.54
2019-04-21T07:06:46.981Z,17.01
2019-04-21T07:09:16.026Z,17.19
2019-04-21T07:11:41.240Z,17.16
2019-04-21T07:14:27.254Z,17.44
2019-04-21T07:16:46.345Z,17.30
2019-04-21T07:21:46.857Z,17.22
2019-04-21T07:24:20.177Z,17.34
2019-04-21T07:26:50.806Z,17.47
2019-04-21T07:29:25.887Z,17.58
2019-04-21T07:31:55.632Z,17.74
2019-04-21T07:34:21.374Z,17.60
2019-04-21T07:39:18.033Z,17.67
2019-04-21T07:41:45.088Z,17.60
2019-04-21T07:44:13.656Z,17.66
2019-04-21T07:46:47.227Z,17.42
2019-04-21T07:49:46.253Z,18.66
2019-04-21T07:52:24.812Z,19.40
2019-04-21T07:55:05.559Z,19.36
2019-04-21T07:57:18.806Z,19.55
2019-04-21T08:00:08.395Z,19.55
2019-04-21T08:02:30.803Z,19.44
2019-04-21T08:05:10.256Z,19.74
2019-04-21T08:07:46.226Z,20.38
2019-04-21T08:09:57.199Z,20.37
2019-04-21T08:12:24.226Z,20.30
2019-04-21T08:15:07.709Z,20.43
2019-04-21T08:17:36.614Z,19.42
2019-04-21T08:20:09.292Z,19.01
2019-04-21T08:22:44.204Z,19.92
2019-04-21T08:25:09.209Z,20.03
2019-04-21T08:28:02.255Z,20.43
2019-04-21T08:30:10.993Z,20.41
2019-04-21T08:32:51.467Z,19.87
2019-04-21T08:35:48.770Z,20.91
2019-04-21T08:37:43.271Z,21.44
2019-04-21T08:40:28.936Z,22.03
2019-04-21T08:42:54.086Z,23.69
2019-04-21T08:45:22.042Z,21.16
2019-04-21T08:47:51.951Z,20.40
2019-04-21T08:50:21.104Z,21.06
2019-04-21T08:52:58.327Z,22.89
2019-04-21T08:55:40.038Z,23.11
2019-04-21T08:58:22.651Z,24.54
2019-04-21T09:00:56.258Z,24.44
2019-04-21T09:03:37.401Z,23.74
2019-04-21T09:06:07.609Z,20.92
2019-04-21T09:08:33.108Z,20.85
2019-04-21T09:11:05.725Z,20.76
2019-04-21T09:13:36.955Z,21.00
2019-04-21T09:16:03.796Z,20.73
2019-04-21T09:18:32.511Z,20.94
2019-04-21T09:21:13.534Z,21.33
2019-04-21T09:23:43.690Z,21.13
2019-04-21T09:26:13.836Z,20.77
2019-04-21T09:28:42.369Z,20.96
2019-04-21T09:31:00.870Z,22.04
2019-04-21T09:33:35.780Z,22.50
2019-04-21T09:36:02.613Z,22.88
2019-04-21T09:38:38.007Z,23.57
2019-04-21T09:41:02.660Z,22.56
2019-04-21T09:43:40.039Z,23.08
2019-04-21T09:46:03.977Z,23.63
2019-04-21T09:48:49.111Z,23.91
2019-04-21T09:51:06.464Z,24.27
2019-04-21T09:53:38.775Z,23.99
2019-04-21T09:56:11.794Z,23.25
2019-04-21T09:58:43.720Z,23.25
2019-04-21T10:01:19.767Z,24.63
2019-04-21T10:03:46.650Z,23.98
2019-04-21T10:06:14.406Z,24.56
2019-04-21T10:08:42.905Z,23.66
2019-04-21T10:11:12.356Z,24.53
2019-04-21T10:13:41.993Z,25.88
2019-04-21T10:16:13.315Z,25.17
2019-04-21T10:18:43.850Z,25.73
2019-04-21T10:21:13.656Z,25.98
2019-04-21T10:23:43.828Z,27.66
2019-04-21T10:26:14.547Z,27.60
2019-04-21T10:28:44.036Z,27.60
2019-04-21T10:31:14.418Z,27.77
2019-04-21T10:33:44.301Z,25.79
2019-04-21T10:36:15.108Z,25.58
2019-04-21T10:38:51.297Z,24.99
2019-04-21T10:41:17.004Z,25.61
2019-04-21T10:43:47.166Z,25.87
2019-04-21T10:46:17.042Z,25.77
2019-04-21T10:48:46.791Z,26.42
2019-04-21T10:51:17.162Z,26.76
2019-04-21T10:53:53.882Z,26.62
2019-04-21T10:56:30.715Z,27.45
2019-04-21T10:58:54.184Z,26.58
2019-04-21T11:01:25.477Z,26.57
2019-04-21T11:03:58.919Z,26.86
2019-04-21T11:06:28.854Z,24.33
2019-04-21T11:09:01.041Z,25.29
2019-04-21T11:11:30.172Z,25.55
2019-04-21T11:14:00.085Z,26.50
2019-04-21T11:16:30.845Z,25.81
2019-04-21T11:19:00.489Z,25.10
2019-04-21T11:21:31.024Z,26.35
2019-04-21T11:24:01.913Z,24.20
2019-04-21T11:26:31.987Z,25.38
2019-04-21T11:29:01.221Z,25.25
2019-04-21T11:31:31.284Z,27.26
2019-04-21T11:34:01.032Z,28.05
2019-04-21T11:36:31.359Z,29.38
2019-04-21T11:39:19.367Z,27.11
2019-04-21T11:41:36.970Z,28.17
2019-04-21T11:44:07.781Z,26.02
2019-04-21T11:46:38.341Z,26.91
2019-04-21T11:49:08.448Z,25.55
2019-04-21T11:51:38.204Z,26.53
2019-04-21T11:54:08.767Z,25.51
2019-04-21T11:56:38.894Z,26.98
2019-04-21T11:59:10.037Z,27.92
2019-04-21T12:01:39.650Z,29.12
2019-04-21T12:04:09.773Z,26.45
2019-04-21T12:06:44.449Z,25.75
2019-04-21T12:09:11.835Z,27.03
2019-04-21T12:11:43.188Z,25.85
2019-04-21T12:14:12.643Z,25.48
2019-04-21T12:16:43.302Z,25.36
2019-04-21T12:19:12.919Z,24.62
2019-04-21T12:21:53.269Z,25.68
2019-04-21T12:24:15.202Z,25.79
2019-04-21T12:26:46.348Z,24.45
2019-04-21T12:29:16.679Z,24.35
2019-04-21T12:31:59.610Z,24.42
2019-04-21T12:34:30.222Z,24.17
2019-04-21T12:37:00.855Z,25.28
2019-04-21T12:39:30.643Z,25.84
2019-04-21T12:42:00.824Z,25.76
2019-04-21T12:44:31.831Z,26.13
2019-04-21T12:47:01.726Z,26.46
2019-04-21T12:49:31.789Z,26.13
2019-04-21T12:52:02.013Z,26.33
2019-04-21T12:54:33.126Z,25.79
2019-04-21T12:57:03.459Z,25.96
2019-04-21T12:59:34.524Z,26.23
2019-04-21T13:02:04.371Z,26.39
2019-04-21T13:04:33.728Z,25.99
2019-04-21T13:07:03.691Z,25.77
2019-04-21T13:09:34.270Z,25.01
2019-04-21T13:12:04.893Z,25.87
2019-04-21T13:14:34.292Z,24.68
2019-04-21T13:17:05.670Z,25.78
2019-04-21T13:19:35.748Z,26.14
2019-04-21T13:22:05.845Z,26.13
2019-04-21T13:24:35.849Z,25.91
2019-04-21T13:27:07.452Z,25.58
2019-04-21T13:29:37.015Z,25.80
2019-04-21T13:32:08.409Z,26.05
2019-04-21T13:34:37.936Z,25.59
2019-04-21T13:37:07.715Z,26.01
2019-04-21T13:40:23.640Z,26.25
2019-04-21T13:42:40.713Z,26.06
2019-04-21T13:45:10.082Z,25.53
2019-04-21T13:47:40.773Z,26.22
2019-04-21T13:50:11.208Z,26.48
2019-04-21T13:52:40.882Z,26.41
2019-04-21T13:55:11.812Z,26.33
2019-04-21T13:57:41.299Z,25.55
2019-04-21T14:00:13.069Z,26.34
2019-04-21T14:02:42.754Z,26.43
2019-04-21T14:05:15.766Z,25.81
2019-04-21T14:07:46.203Z,26.25
2019-04-21T14:10:17.912Z,26.42
2019-04-21T14:12:48.943Z,26.48
2019-04-21T14:15:20.470Z,26.56
2019-04-21T14:17:50.917Z,26.64
2019-04-21T14:20:21.570Z,26.60
2019-04-21T14:22:51.918Z,26.26
2019-04-21T14:25:21.748Z,26.18
2019-04-21T14:27:52.554Z,25.72
2019-04-21T14:30:26.309Z,26.23
2019-04-21T14:32:56.190Z,26.38
2019-04-21T14:35:27.140Z,25.61
2019-04-21T14:37:56.628Z,25.37
2019-04-21T14:40:29.506Z,25.64
2019-04-21T14:42:58.349Z,25.42
2019-04-21T14:45:30.459Z,26.08
2019-04-21T14:48:19.041Z,25.61
2019-04-21T14:51:06.587Z,25.88
2019-04-21T14:53:38.130Z,26.19
2019-04-21T14:56:08.818Z,26.33
2019-04-21T14:58:39.246Z,26.36
2019-04-21T15:01:10.403Z,25.86
2019-04-21T15:03:41.727Z,25.75
2019-04-21T15:06:11.659Z,25.19
2019-04-21T15:08:41.216Z,25.67
2019-04-21T15:11:11.725Z,25.67
2019-04-21T15:13:41.762Z,25.52
2019-04-21T15:16:11.218Z,25.51
2019-04-21T15:18:41.002Z,25.90
2019-04-21T15:21:11.126Z,25.58
2019-04-21T15:23:40.700Z,26.03
2019-04-21T15:26:10.388Z,25.43
2019-04-21T15:28:42.297Z,25.89
2019-04-21T15:31:12.697Z,25.99
2019-04-21T15:33:43.171Z,25.06
2019-04-21T15:36:13.412Z,25.10
2019-04-21T15:38:43.791Z,25.30
2019-04-21T15:41:14.382Z,25.58
2019-04-21T15:43:44.738Z,25.38
2019-04-21T15:46:15.086Z,25.67
2019-04-21T15:48:44.893Z,25.27
2019-04-21T15:51:15.718Z,25.45
2019-04-21T15:53:47.876Z,25.49
2019-04-21T15:56:20.581Z,25.28
2019-04-21T15:59:01.087Z,25.38
2019-04-21T16:01:32.495Z,25.64
2019-04-21T16:04:02.880Z,25.71
2019-04-21T16:06:37.400Z,25.61
2019-04-21T16:09:16.153Z,25.76
2019-04-21T16:11:40.222Z,25.63
2019-04-21T16:14:10.176Z,25.01
2019-04-21T16:16:41.038Z,25.33
2019-04-21T16:19:12.328Z,25.10
2019-04-21T16:21:44.391Z,25.15
2019-04-21T16:24:14.151Z,25.20
2019-04-21T16:26:44.579Z,25.37
2019-04-21T16:29:15.267Z,25.30
2019-04-21T16:31:44.918Z,25.18
2019-04-21T16:34:15.701Z,25.28
2019-04-21T16:36:45.705Z,25.31
2019-04-21T16:39:15.588Z,25.31
2019-04-21T16:41:46.517Z,25.17
2019-04-21T16:44:16.887Z,25.10
2019-04-21T16:46:47.511Z,24.81
2019-04-21T16:49:17.896Z,24.98
2019-04-21T16:51:49.994Z,25.10
2019-04-21T16:54:21.999Z,25.00
2019-04-21T16:56:54.094Z,25.03
2019-04-21T16:59:26.328Z,24.73
2019-04-21T17:01:56.542Z,24.69
2019-04-21T17:04:26.491Z,24.77
2019-04-21T17:06:55.994Z,24.60
2019-04-21T17:09:26.559Z,24.70
2019-04-21T17:11:59.854Z,24.70
2019-04-21T17:14:43.679Z,24.63
2019-04-21T17:17:20.501Z,24.48
2019-04-21T17:19:32.870Z,24.55
2019-04-21T17:22:01.594Z,24.53
2019-04-21T17:24:32.562Z,24.37
2019-04-21T17:27:02.877Z,24.27
2019-04-21T17:29:32.587Z,24.44
2019-04-21T17:32:04.789Z,24.28
2019-04-21T17:34:35.516Z,24.26
2019-04-21T17:37:05.541Z,24.19
2019-04-21T17:39:36.623Z,24.23
2019-04-21T17:42:18.345Z,24.16
2019-04-21T17:44:39.207Z,24.03
2019-04-21T17:47:21.428Z,23.96
2019-04-21T17:49:41.105Z,23.90
2019-04-21T17:52:22.147Z,23.74
2019-04-21T17:55:12.268Z,23.85
2019-04-21T17:57:54.545Z,23.61
2019-04-21T18:00:42.789Z,23.49
2019-04-21T18:02:59.000Z,23.46
2019-04-21T18:05:32.977Z,23.41
2019-04-21T18:07:54.829Z,23.36
2019-04-21T18:10:33.821Z,23.26
2019-04-21T18:12:55.359Z,23.15
2019-04-21T18:15:35.998Z,22.95
2019-04-21T18:17:50.233Z,22.74
2019-04-21T18:20:25.843Z,22.66
2019-04-21T18:22:58.570Z,22.52
2019-04-21T18:25:44.852Z,22.39
2019-04-21T18:28:04.820Z,22.22
2019-04-21T18:30:44.552Z,21.88
2019-04-21T18:33:22.872Z,21.77
2019-04-21T18:36:00.660Z,21.62
2019-04-21T18:39:04.136Z,21.48
2019-04-21T18:41:30.218Z,21.25
2019-04-21T18:44:53.733Z,21.19
2019-04-21T18:47:16.551Z,21.04
2019-04-21T18:49:29.139Z,20.73
2019-04-21T18:52:18.148Z,20.49
2019-04-21T18:54:57.580Z,20.41
2019-04-21T18:57:19.555Z,20.32
2019-04-21T18:59:45.128Z,20.28
2019-04-21T19:02:17.783Z,20.08
2019-04-21T19:04:44.167Z,20.00
2019-04-21T19:07:25.233Z,19.96
2019-04-21T19:10:20.492Z,19.74
2019-04-21T19:14:58.105Z,19.75
2019-04-21T19:22:38.611Z,19.50
2019-04-21T19:25:13.158Z,19.40
2019-04-21T19:27:38.321Z,19.36
2019-04-21T19:32:39.058Z,19.01
2019-04-21T19:34:59.500Z,18.75
2019-04-21T19:37:28.872Z,18.77
2019-04-21T19:40:08.733Z,18.80
2019-04-21T19:42:38.332Z,18.70
2019-04-21T19:45:20.637Z,18.61
2019-04-21T19:47:50.354Z,18.58
2019-04-21T19:50:26.481Z,18.46
2019-04-21T19:52:43.770Z,18.35
2019-04-21T19:55:09.754Z,18.35
2019-04-21T19:57:39.201Z,18.29
2019-04-21T20:00:11.249Z,18.17
2019-04-21T20:02:40.838Z,18.14
2019-04-21T20:05:16.503Z,18.11
2019-04-21T20:08:02.942Z,18.01
2019-04-21T20:10:35.242Z,17.95
2019-04-21T20:13:02.847Z,17.94
2019-04-21T20:15:42.130Z,17.95
2019-04-21T20:18:01.870Z,17.76
2019-04-21T20:20:19.362Z,17.78
2019-04-21T20:22:51.975Z,17.74
2019-04-21T20:25:23.261Z,17.63
2019-04-21T20:28:01.343Z,17.54
2019-04-21T20:30:42.309Z,17.56
2019-04-21T20:33:36.969Z,17.49
2019-04-21T20:35:52.089Z,17.46
2019-04-21T20:38:12.341Z,17.42
2019-04-21T20:40:40.273Z,17.46
2019-04-21T20:43:16.454Z,17.53
2019-04-21T20:45:54.120Z,17.56
2019-04-21T20:48:13.869Z,17.58
2019-04-21T20:50:49.925Z,17.56
2019-04-21T20:53:25.113Z,17.42
2019-04-21T20:55:48.985Z,17.36
2019-04-21T20:58:25.405Z,17.31
2019-04-21T21:01:09.365Z,17.21
2019-04-21T21:03:24.273Z,17.15
2019-04-21T21:05:51.528Z,17.14
2019-04-21T21:08:31.416Z,17.06
2019-04-21T21:10:58.746Z,17.01
2019-04-21T21:13:33.715Z,17.01
2019-04-21T21:16:10.271Z,16.82
2019-04-21T21:18:56.454Z,16.80
2019-04-21T21:21:09.498Z,16.69
2019-04-21T21:23:37.093Z,16.60
2019-04-21T21:26:10.683Z,16.53
2019-04-21T21:28:32.672Z,16.46
2019-04-21T21:31:11.747Z,16.37
2019-04-21T21:33:54.297Z,16.37
2019-04-21T21:36:13.989Z,16.31
2019-04-21T21:38:42.885Z,16.13
2019-04-21T21:41:07.621Z,16.06
2019-04-21T21:43:29.432Z,16.04
2019-04-21T21:46:02.638Z,15.83
2019-04-21T21:48:40.823Z,15.96
2019-04-21T21:51:05.860Z,15.96
2019-04-21T21:53:34.147Z,15.93
2019-04-21T21:56:02.825Z,15.76
2019-04-21T21:58:37.162Z,15.74
2019-04-21T22:01:08.194Z,15.89
2019-04-21T22:03:40.841Z,15.91
2019-04-21T22:06:10.814Z,15.93
2019-04-21T22:08:38.631Z,15.89
2019-04-21T22:11:08.911Z,15.96
2019-04-21T22:13:47.615Z,16.04
2019-04-21T22:16:13.979Z,16.17
2019-04-21T22:19:03.219Z,16.28
2019-04-21T22:21:34.235Z,16.31
2019-04-21T22:23:54.937Z,16.48
2019-04-21T22:26:15.494Z,16.51
2019-04-21T22:28:45.691Z,16.65
2019-04-21T22:31:19.630Z,16.67
2019-04-21T22:33:50.306Z,16.74
2019-04-21T22:36:29.930Z,16.78
2019-04-21T22:39:09.015Z,16.93
2019-04-21T22:41:28.887Z,16.96
2019-04-21T22:43:52.348Z,16.98
2019-04-21T22:46:22.354Z,16.92
2019-04-21T22:48:56.534Z,16.92
2019-04-21T22:51:30.528Z,16.87
2019-04-21T22:53:57.617Z,16.81
2019-04-21T22:56:30.083Z,16.86
2019-04-21T22:58:57.114Z,16.82
2019-04-21T23:01:33.393Z,16.81
2019-04-21T23:04:01.352Z,16.48
2019-04-21T23:06:32.693Z,16.68
2019-04-21T23:09:01.160Z,16.65
2019-04-21T23:11:35.881Z,16.70
2019-04-21T23:14:06.527Z,16.71
2019-04-21T23:16:36.263Z,16.72
2019-04-21T23:19:21.212Z,16.57
2019-04-21T23:21:55.382Z,16.56
2019-04-21T23:24:33.110Z,16.52
2019-04-21T23:26:51.691Z,16.45
2019-04-21T23:29:39.503Z,16.46
2019-04-21T23:32:00.796Z,16.44
2019-04-21T23:34:19.719Z,16.36
2019-04-21T23:36:53.108Z,16.34
2019-04-21T23:39:21.577Z,16.22
2019-04-21T23:41:48.862Z,16.17
2019-04-21T23:44:19.034Z,16.07
2019-04-21T23:46:51.088Z,16.10
2019-04-21T23:49:29.661Z,16.04
2019-04-21T23:51:58.376Z,15.96
2019-04-21T23:54:19.803Z,15.94
2019-04-21T23:56:49.529Z,15.98
2019-04-21T23:59:20.592Z,15.98
